Terminal Aerodrome Forecast
Issued by NWS Omaha/Valley, NE

Home | Current Version | Previous Version | Text Only | Print | Product List | Glossary On
Versions: 1 2 3 4 5 6 7 8 9 10 11 12 13 14 15 16 17 18 19 20 21 22 23 24 25 26 27 28 29 30 31 32 33 34
000
FTUS43 KOAX 211735
TAFLNK
TAF
KLNK 211735Z 2118/2218 13018G25KT 6SM HZ OVC015
      TEMPO 2118/2121 3SM -SN OVC015
     FM220000 13018G25KT 5SM BR OVC015
      TEMPO 2202/2206 4SM -FZDZ BR OVC015
     FM220600 12017KT 4SM -FZDZSN BR OVC010
      TEMPO 2212/2215 2SM -FZRASN BR OVC005
     FM221500 36015G20KT 2SM -FZRASN BR OVC005 PROB30 2215/2218
      3/4SM -SN BR OVC003=

USA.gov is the U.S. government's official web portal to all federal, state and local government web resources and services.